Time;durP1;ratioP1;P1;durP2;ratioP2;P2;SDS_P1;SDS_P2;PMS_P1;PMS_P2;Temp;Humidity;BMP_temperature;BMP_pressure;BME280_temperature;BME280_humidity;BME280_pressure;Samples;Min_cycle;Max_cycle;Signal;HPM_P1;HPM_P2
2023/10/20 00:01:01;;;;;;;7.75;5.03;;;;;;;;;;5101859;28;20047;-72
2023/10/20 00:03:47;;;;;;;7.10;5.13;;;;;;;;;;5117026;28;20438;-73
2023/10/20 00:06:33;;;;;;;6.70;4.75;;;;;;;;;;5117495;28;20028;-73
2023/10/20 00:09:19;;;;;;;7.65;5.45;;;;;;;;;;5102485;28;20046;-73
2023/10/20 00:12:05;;;;;;;8.00;5.00;;;;;;;;;;5116930;28;20020;-73
2023/10/20 00:14:51;;;;;;;8.43;5.82;;;;;;;;;;5116562;28;20024;-74
2023/10/20 00:17:36;;;;;;;7.35;5.72;;;;;;;;;;5101098;28;20023;-73
2023/10/20 00:20:22;;;;;;;8.85;5.40;;;;;;;;;;5115585;28;20027;-74
2023/10/20 00:23:08;;;;;;;9.48;6.25;;;;;;;;;;5115949;28;20028;-73
2023/10/20 00:25:53;;;;;;;10.20;6.18;;;;;;;;;;5116483;28;20015;-73
2023/10/20 00:28:39;;;;;;;11.27;6.07;;;;;;;;;;5115764;28;20020;-74
2023/10/20 00:31:25;;;;;;;10.82;6.57;;;;;;;;;;5116713;28;20039;-73
2023/10/20 00:34:10;;;;;;;12.05;7.03;;;;;;;;;;5115972;28;20026;-73
2023/10/20 00:36:56;;;;;;;11.10;7.63;;;;;;;;;;5115624;28;20103;-74
2023/10/20 00:39:43;;;;;;;11.32;7.40;;;;;;;;;;5100474;28;20019;-74
2023/10/20 00:42:30;;;;;;;14.13;7.57;;;;;;;;;;5116182;28;20346;-73
2023/10/20 00:45:16;;;;;;;13.60;7.95;;;;;;;;;;5116268;28;20055;-74
2023/10/20 00:48:02;;;;;;;12.40;7.75;;;;;;;;;;5115563;28;20027;-72
2023/10/20 00:50:47;;;;;;;14.18;7.65;;;;;;;;;;5115810;28;20052;-72
2023/10/20 00:53:34;;;;;;;12.77;7.70;;;;;;;;;;5100215;28;20027;-73
2023/10/20 00:56:20;;;;;;;14.23;8.07;;;;;;;;;;5115873;28;20157;-73
2023/10/20 00:59:05;;;;;;;12.30;7.57;;;;;;;;;;5100628;28;20336;-72
2023/10/20 01:01:51;;;;;;;11.95;7.70;;;;;;;;;;5115287;28;20333;-73
2023/10/20 01:04:37;;;;;;;11.48;7.35;;;;;;;;;;5115013;28;20042;-74
2023/10/20 01:07:24;;;;;;;12.27;7.68;;;;;;;;;;5115292;28;20134;-72
2023/10/20 01:10:09;;;;;;;13.20;8.18;;;;;;;;;;5114976;28;20024;-72
2023/10/20 01:12:55;;;;;;;14.15;8.13;;;;;;;;;;5100023;28;20036;-73
2023/10/20 01:15:41;;;;;;;11.55;7.97;;;;;;;;;;5114733;28;20363;-71
2023/10/20 01:18:26;;;;;;;16.02;8.23;;;;;;;;;;5115249;28;20048;-72
2023/10/20 01:21:12;;;;;;;14.05;9.65;;;;;;;;;;5114417;28;20012;-73
2023/10/20 01:24:01;;;;;;;15.65;10.70;;;;;;;;;;5114756;28;20020;-72
2023/10/20 01:26:47;;;;;;;18.48;11.70;;;;;;;;;;5116413;27;20059;-73
2023/10/20 01:29:33;;;;;;;18.52;11.00;;;;;;;;;;5115569;28;20023;-73
2023/10/20 01:32:19;;;;;;;20.90;12.48;;;;;;;;;;5114372;28;20041;-72
2023/10/20 01:35:05;;;;;;;20.67;12.10;;;;;;;;;;5116065;28;20030;-72
2023/10/20 01:37:50;;;;;;;19.88;12.32;;;;;;;;;;5115168;28;20344;-72
2023/10/20 01:40:36;;;;;;;18.92;11.48;;;;;;;;;;5114360;28;20357;-72
2023/10/20 01:43:22;;;;;;;15.85;11.23;;;;;;;;;;5114710;28;20034;-73
2023/10/20 01:46:08;;;;;;;17.33;9.88;;;;;;;;;;5115997;27;20023;-73
2023/10/20 01:48:54;;;;;;;16.58;10.25;;;;;;;;;;5115212;28;20027;-74
2023/10/20 01:51:40;;;;;;;16.50;9.63;;;;;;;;;;5115213;28;20047;-73
2023/10/20 01:54:26;;;;;;;16.42;9.38;;;;;;;;;;5114462;28;20110;-73
2023/10/20 01:57:11;;;;;;;16.52;11.13;;;;;;;;;;5100143;28;20072;-73
2023/10/20 01:59:57;;;;;;;14.20;9.70;;;;;;;;;;5114041;28;20027;-73
2023/10/20 02:02:43;;;;;;;16.48;9.90;;;;;;;;;;5114294;28;20077;-74
2023/10/20 02:05:29;;;;;;;14.85;9.63;;;;;;;;;;5114342;28;20028;-73
2023/10/20 02:08:14;;;;;;;20.55;10.10;;;;;;;;;;5114017;28;20015;-73
2023/10/20 02:11:00;;;;;;;17.95;10.13;;;;;;;;;;5101348;28;20020;-73
2023/10/20 02:13:46;;;;;;;14.85;10.13;;;;;;;;;;5113570;28;20097;-73
2023/10/20 02:16:31;;;;;;;14.43;10.13;;;;;;;;;;5099896;28;20031;-74
2023/10/20 02:19:17;;;;;;;16.10;9.90;;;;;;;;;;5113955;28;20046;-74
2023/10/20 02:22:02;;;;;;;15.27;10.10;;;;;;;;;;5113771;28;20031;-74
2023/10/20 02:24:48;;;;;;;16.25;9.48;;;;;;;;;;5113911;28;20106;-73
2023/10/20 02:27:34;;;;;;;13.93;10.05;;;;;;;;;;5114609;28;20084;-73
2023/10/20 02:30:19;;;;;;;17.63;10.38;;;;;;;;;;5099134;28;20048;-74
2023/10/20 02:33:05;;;;;;;15.30;11.10;;;;;;;;;;5113810;28;20102;-74
2023/10/20 02:35:52;;;;;;;17.33;11.13;;;;;;;;;;5115595;28;20024;-74
2023/10/20 02:38:37;;;;;;;18.42;11.60;;;;;;;;;;5114384;28;20020;-74
2023/10/20 02:41:23;;;;;;;17.75;10.95;;;;;;;;;;5114825;28;20022;-74
2023/10/20 02:44:09;;;;;;;22.27;10.80;;;;;;;;;;5115468;28;20027;-74
2023/10/20 02:46:54;;;;;;;16.65;9.50;;;;;;;;;;5114488;28;20052;-73
2023/10/20 02:49:40;;;;;;;22.88;10.27;;;;;;;;;;5114017;28;20053;-73
2023/10/20 02:52:25;;;;;;;25.63;10.00;;;;;;;;;;5113208;28;20044;-75
2023/10/20 02:55:12;;;;;;;18.75;11.65;;;;;;;;;;5113340;28;20020;-74
2023/10/20 02:57:59;;;;;;;15.45;10.48;;;;;;;;;;5114835;28;20024;-73
2023/10/20 03:00:45;;;;;;;15.85;9.50;;;;;;;;;;5114446;28;20031;-74
2023/10/20 03:03:30;;;;;;;17.67;10.30;;;;;;;;;;5115966;28;20110;-73
2023/10/20 03:06:16;;;;;;;14.73;9.50;;;;;;;;;;5117445;28;20032;-73
2023/10/20 03:09:03;;;;;;;20.92;10.13;;;;;;;;;;5117396;28;20030;-73
2023/10/20 03:11:48;;;;;;;14.98;10.00;;;;;;;;;;5119357;28;20034;-74
2023/10/20 03:14:34;;;;;;;13.70;9.23;;;;;;;;;;5109568;28;20304;-74
2023/10/20 03:17:20;;;;;;;16.13;9.95;;;;;;;;;;5117220;28;20106;-74
2023/10/20 03:20:09;;;;;;;18.08;10.27;;;;;;;;;;5117564;28;20079;-74
2023/10/20 03:22:55;;;;;;;19.10;10.57;;;;;;;;;;5104279;28;20012;-74
2023/10/20 03:25:41;;;;;;;19.15;10.73;;;;;;;;;;5116838;28;20038;-74
2023/10/20 03:28:27;;;;;;;21.15;11.98;;;;;;;;;;5117702;28;20349;-73
2023/10/20 03:31:12;;;;;;;23.00;12.65;;;;;;;;;;5118445;27;20091;-74
2023/10/20 03:33:58;;;;;;;20.88;11.05;;;;;;;;;;5118448;27;20459;-72
2023/10/20 03:36:43;;;;;;;20.77;11.68;;;;;;;;;;5116359;28;20417;-74
2023/10/20 03:39:32;;;;;;;24.50;11.77;;;;;;;;;;5102045;28;20018;-74
2023/10/20 03:42:18;;;;;;;20.60;11.85;;;;;;;;;;5118528;27;20019;-73
2023/10/20 03:45:08;;;;;;;22.00;11.50;;;;;;;;;;5103786;28;20027;-74
2023/10/20 03:47:54;;;;;;;20.15;11.60;;;;;;;;;;5116811;28;20172;-74
2023/10/20 03:50:41;;;;;;;24.27;12.73;;;;;;;;;;5116775;28;20126;-73
2023/10/20 03:53:27;;;;;;;26.92;13.90;;;;;;;;;;5118346;27;20027;-75
2023/10/20 03:56:13;;;;;;;22.08;13.27;;;;;;;;;;5116653;28;20015;-73
2023/10/20 03:58:58;;;;;;;29.20;12.65;;;;;;;;;;5116959;28;20118;-74
2023/10/20 04:01:44;;;;;;;26.83;13.45;;;;;;;;;;5117648;28;20440;-73
2023/10/20 04:04:30;;;;;;;24.08;13.45;;;;;;;;;;5115872;28;20085;-74
2023/10/20 04:07:15;;;;;;;22.83;13.90;;;;;;;;;;5118004;28;20034;-74
2023/10/20 04:10:01;;;;;;;26.58;14.10;;;;;;;;;;5116909;28;20088;-73
2023/10/20 04:12:47;;;;;;;27.85;14.52;;;;;;;;;;5101136;28;20039;-72
2023/10/20 04:15:36;;;;;;;27.40;14.05;;;;;;;;;;5100893;28;20024;-73
2023/10/20 04:18:24;;;;;;;19.75;12.90;;;;;;;;;;5103164;28;20435;-74
2023/10/20 04:21:13;;;;;;;22.13;13.10;;;;;;;;;;5116872;28;20024;-74
2023/10/20 04:23:59;;;;;;;24.05;14.23;;;;;;;;;;5101966;28;20019;-73
2023/10/20 04:26:45;;;;;;;29.27;14.88;;;;;;;;;;5101991;28;20028;-75
2023/10/20 04:29:47;;;;;;;24.98;15.00;;;;;;;;;;5100933;28;20057;-74
2023/10/20 04:44:58;;;;;;;26.88;13.95;;;;;;;;;;5116584;28;20416;-74
2023/10/20 04:54:04;;;;;;;27.95;12.70;;;;;;;;;;5117449;27;20020;-73
2023/10/20 05:05:58;;;;;;;21.25;10.65;;;;;;;;;;5116581;28;20479;-73
2023/10/20 05:08:43;;;;;;;29.08;13.30;;;;;;;;;;5108200;28;20085;-73
2023/10/20 05:11:29;;;;;;;24.73;15.35;;;;;;;;;;5116636;28;20092;-74
2023/10/20 05:14:14;;;;;;;24.88;12.80;;;;;;;;;;5115264;28;20019;-74
2023/10/20 05:17:00;;;;;;;18.80;11.50;;;;;;;;;;5115272;28;20011;-74
2023/10/20 05:19:47;;;;;;;30.35;13.18;;;;;;;;;;5099756;28;20445;-73
2023/10/20 05:22:33;;;;;;;27.60;12.63;;;;;;;;;;5101054;28;20364;-73
2023/10/20 05:25:19;;;;;;;33.75;11.98;;;;;;;;;;5100356;28;20031;-74
2023/10/20 05:28:07;;;;;;;19.77;9.30;;;;;;;;;;5100042;28;20055;-73
2023/10/20 05:30:53;;;;;;;15.52;9.38;;;;;;;;;;5114877;28;20024;-73
2023/10/20 05:33:39;;;;;;;20.75;8.20;;;;;;;;;;5114741;28;20020;-73
2023/10/20 05:36:25;;;;;;;14.85;8.27;;;;;;;;;;5114875;28;20447;-77
2023/10/20 05:39:13;;;;;;;18.50;9.10;;;;;;;;;;5114639;28;20032;-78
2023/10/20 05:42:01;;;;;;;20.75;10.63;;;;;;;;;;5115038;28;20066;-78
2023/10/20 05:45:02;;;;;;;17.13;9.15;;;;;;;;;;5101338;28;20474;-76
2023/10/20 05:47:48;;;;;;;14.00;7.65;;;;;;;;;;5115530;28;20558;-78
2023/10/20 05:50:37;;;;;;;21.40;7.30;;;;;;;;;;5099981;28;20045;-77
2023/10/20 05:53:26;;;;;;;11.27;6.07;;;;;;;;;;5115124;28;20019;-77
2023/10/20 05:56:13;;;;;;;10.85;6.20;;;;;;;;;;5099764;28;20447;-79
2023/10/20 05:58:58;;;;;;;11.77;5.82;;;;;;;;;;5115935;28;20348;-78
2023/10/20 06:01:44;;;;;;;14.77;7.53;;;;;;;;;;5099384;28;20038;-76
2023/10/20 06:04:29;;;;;;;11.18;6.80;;;;;;;;;;5114442;28;20031;-75
2023/10/20 06:07:15;;;;;;;13.68;6.35;;;;;;;;;;5099838;28;20027;-75
2023/10/20 06:10:00;;;;;;;13.57;7.28;;;;;;;;;;5099356;28;20103;-75
2023/10/20 06:12:46;;;;;;;11.25;6.15;;;;;;;;;;5099602;28;20020;-73
2023/10/20 06:15:32;;;;;;;10.57;6.03;;;;;;;;;;5113503;28;20081;-75
2023/10/20 06:18:18;;;;;;;11.68;6.32;;;;;;;;;;5099484;28;20018;-74
2023/10/20 06:21:04;;;;;;;12.07;6.85;;;;;;;;;;5113973;28;20367;-74
2023/10/20 06:23:50;;;;;;;10.30;6.45;;;;;;;;;;5113974;28;20451;-75
2023/10/20 06:26:36;;;;;;;15.65;6.30;;;;;;;;;;5099806;28;20027;-74
2023/10/20 06:29:28;;;;;;;11.32;6.00;;;;;;;;;;5115136;28;20020;-75
2023/10/20 06:35:02;;;;;;;11.18;6.28;;;;;;;;;;5116139;28;20012;-75
2023/10/20 06:38:11;;;;;;;15.18;8.23;;;;;;;;;;5115641;28;20324;-75
2023/10/20 06:40:57;;;;;;;15.40;8.18;;;;;;;;;;5118251;28;20019;-76
2023/10/20 06:43:46;;;;;;;12.77;8.82;;;;;;;;;;5104303;28;20194;-75
2023/10/20 06:46:32;;;;;;;13.88;8.65;;;;;;;;;;5117940;28;20028;-76
2023/10/20 06:49:20;;;;;;;13.13;7.93;;;;;;;;;;5117966;28;20023;-75
2023/10/20 06:52:06;;;;;;;12.88;8.13;;;;;;;;;;5118695;28;20108;-75
2023/10/20 06:54:51;;;;;;;9.90;6.05;;;;;;;;;;5118590;28;20164;-75
2023/10/20 06:57:37;;;;;;;9.93;5.82;;;;;;;;;;5119459;28;20016;-77
2023/10/20 07:00:22;;;;;;;10.85;6.60;;;;;;;;;;5102847;28;20051;-76
2023/10/20 07:03:08;;;;;;;12.40;6.75;;;;;;;;;;5117783;28;20011;-76
2023/10/20 07:05:54;;;;;;;15.77;8.48;;;;;;;;;;5118040;28;20058;-76
2023/10/20 07:08:39;;;;;;;13.23;8.13;;;;;;;;;;5119682;28;20098;-75
2023/10/20 07:11:25;;;;;;;12.93;8.25;;;;;;;;;;5117608;28;20453;-77
2023/10/20 07:14:10;;;;;;;18.75;8.95;;;;;;;;;;5117984;28;20023;-77
2023/10/20 07:16:57;;;;;;;19.83;10.60;;;;;;;;;;5118181;28;20024;-75
2023/10/20 07:19:43;;;;;;;13.32;7.78;;;;;;;;;;5119603;27;20019;-76
2023/10/20 07:22:29;;;;;;;27.95;15.18;;;;;;;;;;5118003;28;20012;-76
2023/10/20 07:25:15;;;;;;;18.88;9.60;;;;;;;;;;5118797;28;20023;-77
2023/10/20 07:28:00;;;;;;;8.68;6.10;;;;;;;;;;5102201;28;20035;-77
2023/10/20 07:30:46;;;;;;;17.63;6.80;;;;;;;;;;5103043;28;20016;-77
2023/10/20 07:33:32;;;;;;;13.00;7.10;;;;;;;;;;5116248;28;20027;-76
2023/10/20 07:36:18;;;;;;;14.52;7.13;;;;;;;;;;5101895;28;20138;-77
2023/10/20 07:39:04;;;;;;;16.00;7.10;;;;;;;;;;5103693;28;20109;-77
2023/10/20 07:41:49;;;;;;;10.82;7.03;;;;;;;;;;5117603;28;20027;-77
2023/10/20 07:44:35;;;;;;;24.02;11.02;;;;;;;;;;5102503;28;20023;-77
2023/10/20 07:47:20;;;;;;;18.05;6.90;;;;;;;;;;5103854;28;20076;-77
2023/10/20 07:50:06;;;;;;;20.45;9.07;;;;;;;;;;5116216;28;20026;-77
2023/10/20 07:52:52;;;;;;;15.07;7.03;;;;;;;;;;5090593;28;20048;-76
2023/10/20 07:55:37;;;;;;;20.90;8.93;;;;;;;;;;5088318;28;20071;-74
2023/10/20 07:58:23;;;;;;;21.38;8.65;;;;;;;;;;5090874;28;20031;-73
2023/10/20 08:01:09;;;;;;;16.95;9.00;;;;;;;;;;5095748;28;20051;-73
2023/10/20 08:03:55;;;;;;;16.95;8.93;;;;;;;;;;5096525;28;20034;-76
2023/10/20 08:06:40;;;;;;;13.95;7.53;;;;;;;;;;5096740;28;20024;-73
2023/10/20 08:09:27;;;;;;;14.13;7.35;;;;;;;;;;5081343;28;20027;-75
2023/10/20 08:12:13;;;;;;;10.55;7.53;;;;;;;;;;5095590;28;20024;-74
2023/10/20 08:14:59;;;;;;;12.05;7.13;;;;;;;;;;5082185;28;20468;-74
2023/10/20 08:17:46;;;;;;;15.32;7.25;;;;;;;;;;5081139;28;20078;-74
2023/10/20 08:20:31;;;;;;;13.32;6.50;;;;;;;;;;5082470;28;20024;-74
2023/10/20 08:23:17;;;;;;;13.90;6.57;;;;;;;;;;5096288;28;20024;-73
2023/10/20 08:26:05;;;;;;;10.07;6.15;;;;;;;;;;5096714;28;20085;-74
2023/10/20 08:28:51;;;;;;;11.85;5.43;;;;;;;;;;5095329;28;20123;-73
2023/10/20 08:31:38;;;;;;;10.05;4.78;;;;;;;;;;5096435;28;20020;-73
2023/10/20 08:34:23;;;;;;;12.27;5.60;;;;;;;;;;5081146;28;20047;-74
2023/10/20 08:37:09;;;;;;;8.45;5.00;;;;;;;;;;5095843;28;20051;-73
2023/10/20 08:39:55;;;;;;;9.15;4.40;;;;;;;;;;5096668;28;20017;-74
2023/10/20 08:42:40;;;;;;;7.47;4.80;;;;;;;;;;5098167;28;20020;-80
2023/10/20 08:45:26;;;;;;;10.27;5.40;;;;;;;;;;5101785;28;20032;-80
2023/10/20 08:48:12;;;;;;;7.13;4.82;;;;;;;;;;5101382;28;20031;-78
2023/10/20 08:51:01;;;;;;;8.35;4.50;;;;;;;;;;5105560;28;20062;-79
2023/10/20 08:53:47;;;;;;;7.28;4.70;;;;;;;;;;5116734;28;20148;-79
2023/10/20 08:56:33;;;;;;;7.97;5.47;;;;;;;;;;5119396;28;20054;-79
2023/10/20 08:59:19;;;;;;;10.00;5.30;;;;;;;;;;5117118;28;20114;-79
2023/10/20 09:02:05;;;;;;;8.05;4.78;;;;;;;;;;5101797;28;20395;-79
2023/10/20 09:04:51;;;;;;;9.90;4.93;;;;;;;;;;5102279;28;20040;-80
2023/10/20 09:07:37;;;;;;;8.63;5.43;;;;;;;;;;5118534;28;20039;-80
2023/10/20 09:10:24;;;;;;;12.73;5.55;;;;;;;;;;5116336;28;20102;-80
2023/10/20 09:13:11;;;;;;;10.85;5.88;;;;;;;;;;5116860;28;20047;-80
2023/10/20 09:15:57;;;;;;;9.90;6.50;;;;;;;;;;5115196;28;20055;-78
2023/10/20 09:18:50;;;;;;;11.43;5.63;;;;;;;;;;5116377;28;20509;-78
2023/10/20 09:21:39;;;;;;;15.35;6.22;;;;;;;;;;5116807;28;20447;-79
2023/10/20 09:24:31;;;;;;;10.70;6.05;;;;;;;;;;5101205;28;20027;-78
2023/10/20 09:27:17;;;;;;;9.90;5.55;;;;;;;;;;5117547;28;20019;-79
2023/10/20 09:30:05;;;;;;;12.35;6.90;;;;;;;;;;5115633;28;20122;-80
2023/10/20 09:32:54;;;;;;;12.88;6.43;;;;;;;;;;5115188;28;20023;-78
2023/10/20 09:35:41;;;;;;;14.35;5.80;;;;;;;;;;5116845;28;20081;-76
2023/10/20 09:38:28;;;;;;;10.50;5.82;;;;;;;;;;5100545;28;20393;-75
2023/10/20 09:41:15;;;;;;;10.65;5.18;;;;;;;;;;5099680;28;20026;-74
2023/10/20 09:44:08;;;;;;;18.98;9.45;;;;;;;;;;5100305;28;20030;-74
2023/10/20 09:46:55;;;;;;;11.95;5.95;;;;;;;;;;5115826;28;20031;-76
2023/10/20 09:49:41;;;;;;;18.13;7.22;;;;;;;;;;5114639;28;20032;-78
2023/10/20 09:52:29;;;;;;;21.02;10.30;;;;;;;;;;5114337;28;20086;-76
2023/10/20 09:55:14;;;;;;;13.38;6.20;;;;;;;;;;5100459;28;20028;-75
2023/10/20 09:58:00;;;;;;;16.10;7.15;;;;;;;;;;5114381;28;20364;-76
2023/10/20 10:00:46;;;;;;;15.30;6.40;;;;;;;;;;5114002;28;20087;-76
2023/10/20 10:03:42;;;;;;;8.70;5.30;;;;;;;;;;5099583;28;20019;-76
2023/10/20 10:06:33;;;;;;;12.95;5.25;;;;;;;;;;5113358;28;20085;-76
2023/10/20 10:09:19;;;;;;;12.55;5.97;;;;;;;;;;5099250;28;20455;-75
2023/10/20 10:12:09;;;;;;;17.48;8.23;;;;;;;;;;5112686;28;20027;-76
2023/10/20 10:14:57;;;;;;;13.48;4.50;;;;;;;;;;5115090;28;20024;-77
2023/10/20 10:17:46;;;;;;;19.13;6.70;;;;;;;;;;5115213;28;20095;-76
2023/10/20 10:20:39;;;;;;;8.13;4.55;;;;;;;;;;5113653;28;20011;-76
2023/10/20 10:23:28;;;;;;;12.82;7.55;;;;;;;;;;5114431;28;20313;-75
2023/10/20 10:26:14;;;;;;;10.20;3.88;;;;;;;;;;5113300;28;20043;-75
2023/10/20 10:29:00;;;;;;;10.57;3.83;;;;;;;;;;5113803;28;20494;-76
2023/10/20 10:31:47;;;;;;;6.90;3.25;;;;;;;;;;5101252;28;20055;-76
2023/10/20 10:34:39;;;;;;;11.15;3.70;;;;;;;;;;5099471;28;20020;-75
2023/10/20 10:37:27;;;;;;;7.20;3.75;;;;;;;;;;5099815;28;20103;-74
2023/10/20 10:40:18;;;;;;;14.13;3.90;;;;;;;;;;5116168;28;20054;-74
2023/10/20 10:43:04;;;;;;;13.10;4.88;;;;;;;;;;5114950;28;20099;-77
2023/10/20 10:45:54;;;;;;;17.88;5.25;;;;;;;;;;5099094;28;20035;-76
2023/10/20 10:48:40;;;;;;;9.10;4.97;;;;;;;;;;5108977;28;20093;-76
2023/10/20 10:51:26;;;;;;;14.15;4.97;;;;;;;;;;5114531;28;20152;-76
2023/10/20 10:54:12;;;;;;;135.10;14.93;;;;;;;;;;5123175;28;20031;-75
2023/10/20 10:57:01;;;;;;;13.48;5.18;;;;;;;;;;5107981;28;20110;-74
2023/10/20 10:59:47;;;;;;;20.50;4.80;;;;;;;;;;5115522;28;20027;-76
2023/10/20 11:02:33;;;;;;;9.88;5.15;;;;;;;;;;5099000;28;20089;-75
2023/10/20 11:05:19;;;;;;;11.13;5.38;;;;;;;;;;5115606;28;20024;-76
2023/10/20 11:08:09;;;;;;;11.02;5.05;;;;;;;;;;5093675;28;20037;-75
2023/10/20 11:10:59;;;;;;;17.42;5.85;;;;;;;;;;5094088;28;20024;-75
2023/10/20 11:13:44;;;;;;;9.10;4.85;;;;;;;;;;5098219;28;20026;-76
2023/10/20 11:16:33;;;;;;;11.50;4.93;;;;;;;;;;5113187;28;20470;-77
2023/10/20 11:19:18;;;;;;;12.40;4.70;;;;;;;;;;5112900;28;20103;-75
2023/10/20 11:22:12;;;;;;;12.13;4.93;;;;;;;;;;5098483;28;20026;-77
2023/10/20 11:24:58;;;;;;;12.27;4.95;;;;;;;;;;5127746;28;20019;-75
2023/10/20 11:27:46;;;;;;;7.47;4.18;;;;;;;;;;5103298;28;20020;-76
2023/10/20 11:30:34;;;;;;;14.50;4.82;;;;;;;;;;5103196;28;20092;-76
2023/10/20 11:33:21;;;;;;;10.10;4.80;;;;;;;;;;5117092;28;20042;-76
2023/10/20 11:36:06;;;;;;;14.10;5.47;;;;;;;;;;5116811;28;20106;-77
2023/10/20 11:38:52;;;;;;;19.00;5.70;;;;;;;;;;5116747;28;20019;-75
2023/10/20 11:41:38;;;;;;;13.32;5.65;;;;;;;;;;5103010;28;20047;-76
2023/10/20 11:44:26;;;;;;;16.13;5.10;;;;;;;;;;5116656;28;20019;-76
2023/10/20 11:47:12;;;;;;;13.20;5.10;;;;;;;;;;5116628;28;20030;-76
2023/10/20 11:49:57;;;;;;;13.73;5.60;;;;;;;;;;5097399;28;20111;-76
2023/10/20 11:52:43;;;;;;;14.25;4.80;;;;;;;;;;5096112;28;20040;-75
2023/10/20 11:55:29;;;;;;;9.65;4.68;;;;;;;;;;5096019;28;20345;-75
2023/10/20 11:58:16;;;;;;;15.60;4.85;;;;;;;;;;5080476;28;20031;-76
2023/10/20 12:01:02;;;;;;;11.98;4.45;;;;;;;;;;5094885;28;20027;-76
2023/10/20 12:03:48;;;;;;;13.07;4.38;;;;;;;;;;5096212;28;20031;-75
2023/10/20 12:06:37;;;;;;;14.35;5.20;;;;;;;;;;5096288;28;20395;-76
2023/10/20 12:09:23;;;;;;;12.43;4.28;;;;;;;;;;5094932;28;20129;-76
2023/10/20 12:12:09;;;;;;;15.57;5.63;;;;;;;;;;5098004;28;20333;-76
2023/10/20 12:14:54;;;;;;;12.40;4.82;;;;;;;;;;5095800;28;20092;-75
2023/10/20 12:17:41;;;;;;;19.73;4.82;;;;;;;;;;5096469;28;20008;-76
2023/10/20 12:20:26;;;;;;;18.48;6.35;;;;;;;;;;5096086;28;20024;-76
2023/10/20 12:23:12;;;;;;;10.63;4.35;;;;;;;;;;5095428;28;20031;-76
2023/10/20 12:25:57;;;;;;;11.85;5.03;;;;;;;;;;5097443;28;20444;-77
2023/10/20 12:28:43;;;;;;;9.88;5.20;;;;;;;;;;5095785;28;20020;-77
2023/10/20 12:31:29;;;;;;;12.90;5.03;;;;;;;;;;5096550;28;20453;-75
2023/10/20 12:34:15;;;;;;;17.48;5.40;;;;;;;;;;5095267;28;20024;-75
2023/10/20 12:37:00;;;;;;;12.63;5.10;;;;;;;;;;5095572;28;20012;-75
2023/10/20 12:39:46;;;;;;;17.17;5.57;;;;;;;;;;5095528;28;20012;-76
2023/10/20 12:42:32;;;;;;;17.90;5.47;;;;;;;;;;5081418;28;20020;-76
2023/10/20 12:45:17;;;;;;;13.00;5.40;;;;;;;;;;5095083;28;20232;-76
2023/10/20 12:48:03;;;;;;;19.73;6.03;;;;;;;;;;5100137;28;20408;-76
2023/10/20 12:50:49;;;;;;;16.90;5.90;;;;;;;;;;5115892;28;20341;-76
2023/10/20 12:53:36;;;;;;;22.42;6.40;;;;;;;;;;5115576;28;20042;-76
2023/10/20 12:56:21;;;;;;;11.02;5.75;;;;;;;;;;5116691;28;20085;-76
2023/10/20 12:59:08;;;;;;;17.65;5.78;;;;;;;;;;5100955;28;20086;-75
2023/10/20 13:01:53;;;;;;;16.17;5.78;;;;;;;;;;5116059;28;20016;-76
2023/10/20 13:04:39;;;;;;;14.43;5.18;;;;;;;;;;5116070;28;20019;-75
2023/10/20 13:07:25;;;;;;;12.75;5.50;;;;;;;;;;5114456;28;20046;-76
2023/10/20 13:10:10;;;;;;;13.70;5.43;;;;;;;;;;5114930;28;20048;-76
2023/10/20 13:12:57;;;;;;;16.23;5.90;;;;;;;;;;5115437;28;20027;-76
2023/10/20 13:15:46;;;;;;;11.48;5.32;;;;;;;;;;5115801;28;20019;-76
2023/10/20 13:18:32;;;;;;;15.95;6.20;;;;;;;;;;5116159;28;20015;-75
2023/10/20 13:21:17;;;;;;;17.33;6.15;;;;;;;;;;5114710;28;20016;-76
2023/10/20 13:24:03;;;;;;;13.18;6.05;;;;;;;;;;5115499;28;20043;-77
2023/10/20 13:26:51;;;;;;;12.10;5.68;;;;;;;;;;5116253;28;20019;-76
2023/10/20 13:29:37;;;;;;;16.73;6.35;;;;;;;;;;5128141;27;20150;-75
2023/10/20 13:32:23;;;;;;;17.17;5.97;;;;;;;;;;5134655;27;20055;-76
2023/10/20 13:35:09;;;;;;;12.07;5.55;;;;;;;;;;5134592;27;20023;-75
2023/10/20 13:37:55;;;;;;;21.25;7.40;;;;;;;;;;5120401;27;20023;-76
2023/10/20 13:40:40;;;;;;;32.78;10.60;;;;;;;;;;5134545;27;20034;-76
2023/10/20 13:43:26;;;;;;;21.63;8.02;;;;;;;;;;5135422;27;20083;-76
2023/10/20 13:46:12;;;;;;;23.88;6.82;;;;;;;;;;5134789;27;20034;-76
2023/10/20 13:48:57;;;;;;;33.85;8.43;;;;;;;;;;5106534;28;20034;-76
2023/10/20 13:51:43;;;;;;;32.78;9.27;;;;;;;;;;5101976;27;20103;-76
2023/10/20 13:54:29;;;;;;;13.65;6.40;;;;;;;;;;5114723;28;20034;-77
2023/10/20 13:57:14;;;;;;;12.63;5.82;;;;;;;;;;5114006;28;20114;-75
2023/10/20 14:00:00;;;;;;;15.48;6.38;;;;;;;;;;5115794;28;20355;-76
2023/10/20 14:02:46;;;;;;;11.48;5.57;;;;;;;;;;5115777;28;20341;-76
2023/10/20 14:05:31;;;;;;;15.25;5.82;;;;;;;;;;5114239;28;20023;-76
2023/10/20 14:08:17;;;;;;;14.60;5.53;;;;;;;;;;5099777;28;20367;-75
2023/10/20 14:11:04;;;;;;;17.92;5.85;;;;;;;;;;5114421;28;20027;-76
2023/10/20 14:13:50;;;;;;;12.30;5.72;;;;;;;;;;5100678;28;20023;-76
2023/10/20 14:16:35;;;;;;;10.70;5.38;;;;;;;;;;5114559;28;20340;-75
2023/10/20 14:19:22;;;;;;;14.73;6.25;;;;;;;;;;5115239;28;20023;-76
2023/10/20 14:22:07;;;;;;;21.05;7.20;;;;;;;;;;5115935;28;20085;-76
2023/10/20 14:24:53;;;;;;;14.05;6.45;;;;;;;;;;5116862;28;20031;-76
2023/10/20 14:27:39;;;;;;;12.25;6.05;;;;;;;;;;5100804;28;20504;-75
2023/10/20 14:30:24;;;;;;;17.77;7.50;;;;;;;;;;5100249;28;20035;-74
2023/10/20 14:33:10;;;;;;;21.58;7.50;;;;;;;;;;5099451;28;20038;-75
2023/10/20 14:35:59;;;;;;;29.73;9.25;;;;;;;;;;5114568;28;20089;-76
2023/10/20 14:38:45;;;;;;;22.33;9.18;;;;;;;;;;5114806;28;20356;-75
2023/10/20 14:41:31;;;;;;;15.85;8.55;;;;;;;;;;5114427;28;20038;-76
2023/10/20 14:44:17;;;;;;;24.05;8.93;;;;;;;;;;5114272;28;20016;-75
2023/10/20 14:47:02;;;;;;;24.40;8.68;;;;;;;;;;5114181;28;20355;-76
2023/10/20 14:49:48;;;;;;;23.90;8.73;;;;;;;;;;5094047;28;20023;-75
2023/10/20 14:52:33;;;;;;;30.23;10.30;;;;;;;;;;5093990;28;20070;-76
2023/10/20 14:55:19;;;;;;;28.85;10.43;;;;;;;;;;5092743;28;20129;-76
2023/10/20 14:58:05;;;;;;;22.25;9.65;;;;;;;;;;5093533;28;20097;-75
2023/10/20 15:00:50;;;;;;;31.05;11.57;;;;;;;;;;5097108;28;20341;-76
2023/10/20 15:03:36;;;;;;;41.53;15.25;;;;;;;;;;5118718;28;20088;-75
2023/10/20 15:06:22;;;;;;;54.05;21.58;;;;;;;;;;5118965;28;20072;-75
2023/10/20 15:09:08;;;;;;;109.57;41.65;;;;;;;;;;5104594;28;20012;-75
2023/10/20 15:11:53;;;;;;;103.53;43.03;;;;;;;;;;5118606;28;20019;-76
2023/10/20 15:14:39;;;;;;;67.97;25.90;;;;;;;;;;5119728;27;20019;-74
2023/10/20 15:17:25;;;;;;;43.35;18.20;;;;;;;;;;5117128;28;20081;-75
2023/10/20 15:20:10;;;;;;;47.67;17.33;;;;;;;;;;5117754;28;20051;-78
2023/10/20 15:22:56;;;;;;;37.53;15.65;;;;;;;;;;5119713;27;20020;-74
2023/10/20 15:25:42;;;;;;;43.30;15.63;;;;;;;;;;5107020;28;20143;-73
2023/10/20 15:28:29;;;;;;;37.33;15.00;;;;;;;;;;5117760;28;20023;-74
2023/10/20 15:31:14;;;;;;;45.83;16.02;;;;;;;;;;5118426;28;20098;-75
2023/10/20 15:34:00;;;;;;;40.72;15.57;;;;;;;;;;5118313;28;20024;-76
2023/10/20 15:36:47;;;;;;;51.33;15.82;;;;;;;;;;5117237;28;20023;-75
2023/10/20 15:39:35;;;;;;;35.38;16.27;;;;;;;;;;5117795;28;20042;-74
2023/10/20 15:42:23;;;;;;;41.60;15.95;;;;;;;;;;5118598;28;20395;-74
2023/10/20 15:45:11;;;;;;;36.47;16.10;;;;;;;;;;5120825;28;20020;-74
2023/10/20 15:47:56;;;;;;;43.88;17.38;;;;;;;;;;5122150;28;20083;-73
2023/10/20 15:50:42;;;;;;;36.30;16.00;;;;;;;;;;5105283;28;20031;-74
2023/10/20 15:53:28;;;;;;;37.42;16.63;;;;;;;;;;5103758;28;20036;-74
2023/10/20 15:56:14;;;;;;;43.85;18.58;;;;;;;;;;5117030;28;20033;-74
2023/10/20 15:59:00;;;;;;;48.28;19.35;;;;;;;;;;5103527;28;20332;-74
2023/10/20 16:01:46;;;;;;;43.65;18.33;;;;;;;;;;5119902;28;20055;-74
2023/10/20 16:04:31;;;;;;;46.83;17.30;;;;;;;;;;5122291;28;20034;-76
2023/10/20 16:07:18;;;;;;;51.47;18.10;;;;;;;;;;5118825;28;20024;-77
2023/10/20 16:10:04;;;;;;;44.80;16.90;;;;;;;;;;5106261;28;20028;-77
2023/10/20 16:12:51;;;;;;;44.58;17.13;;;;;;;;;;5120274;28;20084;-74
2023/10/20 16:15:36;;;;;;;39.13;16.63;;;;;;;;;;5118763;28;20444;-77
2023/10/20 16:18:22;;;;;;;37.88;17.13;;;;;;;;;;5116399;28;20132;-77
2023/10/20 16:21:08;;;;;;;46.55;16.08;;;;;;;;;;5116825;28;20020;-77
2023/10/20 16:23:54;;;;;;;43.95;15.95;;;;;;;;;;5117161;28;20012;-77
2023/10/20 16:26:39;;;;;;;46.22;16.30;;;;;;;;;;5117958;28;20020;-78
2023/10/20 16:29:25;;;;;;;41.17;16.55;;;;;;;;;;5117145;28;20015;-77
2023/10/20 16:32:11;;;;;;;41.75;16.92;;;;;;;;;;5120790;28;20015;-78
2023/10/20 16:34:57;;;;;;;45.20;17.33;;;;;;;;;;5112431;28;20016;-78
2023/10/20 16:37:42;;;;;;;48.15;18.73;;;;;;;;;;5127663;28;20012;-77
2023/10/20 16:40:28;;;;;;;45.90;18.80;;;;;;;;;;5098502;28;20428;-78
2023/10/20 16:43:13;;;;;;;41.88;18.17;;;;;;;;;;5099867;28;20020;-78
2023/10/20 16:46:04;;;;;;;45.25;18.85;;;;;;;;;;5098640;28;20080;-78
2023/10/20 16:48:50;;;;;;;57.22;19.85;;;;;;;;;;5101795;28;20008;-77